Time;durP1;ratioP1;P1;durP2;ratioP2;P2;SDS_P1;SDS_P2;PMS_P1;PMS_P2;Temp;Humidity;BMP_temperature;BMP_pressure;BME280_temperature;BME280_humidity;BME280_pressure;Samples;Min_cycle;Max_cycle;Signal;HPM_P1;HPM_P2
2022/09/20 00:00:41;;;;;;;9.45;4.90;;;;;;;12.36;69.44;99607.91;5173538;28;20129;-71
2022/09/20 00:03:31;;;;;;;7.35;4.75;;;;;;;12.37;69.81;99606.06;5179132;28;20057;-70
2022/09/20 00:06:27;;;;;;;8.88;3.95;;;;;;;12.35;69.03;99603.56;5182630;28;20080;-70
2022/09/20 00:09:17;;;;;;;9.05;3.60;;;;;;;12.24;68.57;99595.72;5182572;28;20056;-70
2022/09/20 00:12:08;;;;;;;10.35;3.85;;;;;;;12.13;68.19;99580.75;5152565;28;20049;-71
2022/09/20 00:14:59;;;;;;;7.70;3.75;;;;;;;12.09;68.51;99603.28;5182431;28;20053;-70
2022/09/20 00:17:49;;;;;;;9.27;3.10;;;;;;;11.97;67.71;99591.06;5182335;28;20058;-71
2022/09/20 00:20:47;;;;;;;5.38;2.83;;;;;;;12.00;67.53;99585.50;5174394;28;20202;-71
2022/09/20 00:23:37;;;;;;;6.88;3.13;;;;;;;11.94;68.29;99589.53;5178429;28;20188;-71
2022/09/20 00:26:28;;;;;;;4.25;2.50;;;;;;;11.85;68.30;99584.19;5181282;28;20068;-71
2022/09/20 00:29:18;;;;;;;8.35;2.95;;;;;;;11.94;68.63;99586.88;5182126;28;20049;-70
2022/09/20 00:32:09;;;;;;;6.35;3.30;;;;;;;11.86;68.15;99575.28;5181110;28;20451;-71
2022/09/20 00:35:09;;;;;;;6.22;2.90;;;;;;;11.82;68.79;99582.66;5181530;28;20072;-70
2022/09/20 00:37:59;;;;;;;8.52;2.72;;;;;;;11.92;68.27;99598.59;5181962;28;20049;-70
2022/09/20 00:40:49;;;;;;;13.00;2.80;;;;;;;11.95;67.76;99596.53;5169896;28;20129;-70
2022/09/20 00:43:42;;;;;;;5.45;2.60;;;;;;;11.97;68.65;99602.53;5181938;28;20061;-70
2022/09/20 00:46:37;;;;;;;6.85;3.13;;;;;;;11.90;68.84;99596.09;5181858;28;20049;-71
2022/09/20 00:49:28;;;;;;;5.95;3.00;;;;;;;11.97;68.48;99601.72;5182099;28;20050;-70
2022/09/20 00:52:17;;;;;;;8.32;3.40;;;;;;;12.08;68.54;99595.41;5177890;28;20072;-71
2022/09/20 00:55:09;;;;;;;6.88;3.10;;;;;;;12.03;68.18;99589.69;5168208;28;20052;-71
2022/09/20 00:58:00;;;;;;;9.40;2.50;;;;;;;12.03;68.49;99593.19;5180854;28;20054;-71
2022/09/20 01:00:53;;;;;;;6.47;2.92;;;;;;;12.11;67.79;99593.31;5173610;28;20046;-71
2022/09/20 01:03:43;;;;;;;7.53;2.93;;;;;;;12.07;67.65;99594.59;5185871;28;20046;-70
2022/09/20 01:06:34;;;;;;;6.47;3.15;;;;;;;12.03;67.33;99590.53;5186080;28;20103;-70
2022/09/20 01:09:24;;;;;;;5.55;2.55;;;;;;;12.11;68.05;99598.63;5185920;28;20141;-70
2022/09/20 01:12:20;;;;;;;3.95;2.38;;;;;;;12.18;67.10;99594.44;5172940;28;20170;-71
2022/09/20 01:15:13;;;;;;;6.28;2.60;;;;;;;12.14;67.21;99586.88;5184951;28;20675;-69
2022/09/20 01:18:06;;;;;;;9.77;2.40;;;;;;;12.11;67.16;99588.00;5186264;28;20060;-71
2022/09/20 01:20:58;;;;;;;5.57;1.70;;;;;;;12.16;67.28;99590.25;5176210;28;20065;-70
2022/09/20 01:23:57;;;;;;;5.35;2.38;;;;;;;12.22;66.18;99597.69;5184763;28;20085;-70
2022/09/20 01:27:09;;;;;;;7.38;2.20;;;;;;;12.17;66.26;99581.28;5185378;28;20057;-72
2022/09/20 01:30:09;;;;;;;6.40;2.65;;;;;;;12.15;66.78;99592.09;5182924;28;20046;-70
2022/09/20 01:33:29;;;;;;;6.10;1.98;;;;;;;12.03;66.70;99595.84;5182310;28;20156;-70
2022/09/20 01:36:30;;;;;;;9.02;2.58;;;;;;;12.07;66.42;99594.59;5182380;28;20089;-70
2022/09/20 01:39:58;;;;;;;6.50;2.00;;;;;;;12.08;66.89;99587.44;5185332;28;20050;-72
2022/09/20 01:43:04;;;;;;;7.22;2.33;;;;;;;11.91;66.86;99584.50;5181208;28;20145;-70
2022/09/20 01:45:58;;;;;;;5.90;2.13;;;;;;;11.88;67.17;99590.06;5172923;28;20065;-70
2022/09/20 01:48:50;;;;;;;;;;;;;;;11.99;67.59;99583.81;5185999;28;20052;-70
2022/09/20 01:52:22;;;;;;;6.90;2.15;;;;;;;12.00;66.60;99585.50;5174120;28;20375;-70
2022/09/20 01:55:41;;;;;;;9.88;2.63;;;;;;;12.17;66.17;99574.16;5177450;28;20057;-70
2022/09/20 01:58:49;;;;;;;5.75;2.13;;;;;;;12.21;66.54;99586.19;5183266;28;20101;-72
2022/09/20 02:02:37;;;;;;;8.52;2.35;;;;;;;11.87;67.24;99587.56;5180412;28;20133;-71
2022/09/20 02:05:56;;;;;;;7.53;3.00;;;;;;;11.95;66.80;99587.69;5184805;28;20447;-72
2022/09/20 02:09:19;;;;;;;9.38;2.97;;;;;;;11.90;67.01;99584.63;5184693;28;20061;-70
2022/09/20 02:12:13;;;;;;;8.02;2.30;;;;;;;12.14;66.36;99577.09;5178198;28;20502;-71
2022/09/20 02:15:41;;;;;;;8.00;2.27;;;;;;;12.23;65.71;99581.56;5169561;28;20432;-71
2022/09/20 02:18:53;;;;;;;8.27;2.22;;;;;;;12.05;66.10;99577.09;5183540;28;20045;-71
2022/09/20 02:22:01;;;;;;;9.20;2.75;;;;;;;11.72;66.74;99585.28;5183444;28;20053;-70
2022/09/20 02:25:06;;;;;;;16.50;2.92;;;;;;;11.83;67.00;99579.00;5184235;28;20056;-70
2022/09/20 02:28:11;;;;;;;7.55;2.20;;;;;;;11.51;67.19;99585.34;5176204;28;20086;-71
2022/09/20 02:31:07;;;;;;;11.02;2.47;;;;;;;11.93;65.74;99587.03;5174600;28;20493;-71
2022/09/20 02:34:06;;;;;;;11.05;2.42;;;;;;;11.59;66.70;99582.03;5172215;28;20053;-70
2022/09/20 02:37:15;;;;;;;8.93;2.17;;;;;;;11.68;67.06;99580.34;5184275;28;20053;-70
2022/09/20 02:40:43;;;;;;;5.35;2.15;;;;;;;11.77;67.07;99582.19;5172685;28;20416;-70
2022/09/20 02:43:48;;;;;;;8.88;2.53;;;;;;;11.56;67.56;99578.81;5182656;28;20050;-71
2022/09/20 02:46:54;;;;;;;8.13;2.75;;;;;;;11.51;67.71;99588.00;5184251;28;20144;-71
2022/09/20 02:49:57;;;;;;;6.00;2.42;;;;;;;11.46;67.42;99584.94;5169057;28;20585;-71
2022/09/20 02:53:09;;;;;;;7.47;2.45;;;;;;;11.59;67.21;99584.69;5176876;28;20058;-71
2022/09/20 02:56:18;;;;;;;7.97;2.67;;;;;;;11.61;66.26;99587.19;5170133;28;20077;-71
2022/09/20 02:59:37;;;;;;;7.97;2.40;;;;;;;11.65;65.81;99583.28;5184187;28;20061;-71
2022/09/20 03:02:32;;;;;;;14.15;2.95;;;;;;;11.79;66.01;99590.03;5183352;28;20072;-70
2022/09/20 03:06:01;;;;;;;9.40;2.20;;;;;;;11.85;65.28;99594.81;5183913;28;20061;-72
2022/09/20 03:09:24;;;;;;;6.75;2.17;;;;;;;11.74;65.82;99578.00;5182784;28;20068;-70
2022/09/20 03:12:35;;;;;;;11.45;2.33;;;;;;;11.81;65.52;99596.06;5151420;28;20069;-72
2022/09/20 03:15:53;;;;;;;11.00;2.40;;;;;;;11.92;65.92;99598.59;5180496;28;20046;-69
2022/09/20 03:19:21;;;;;;;5.88;1.90;;;;;;;11.90;66.58;99597.94;5183387;28;20121;-71
2022/09/20 03:22:17;;;;;;;8.95;2.05;;;;;;;11.84;66.35;99594.00;5182685;28;20075;-70
2022/09/20 03:25:20;;;;;;;6.15;1.90;;;;;;;11.96;65.67;99600.03;5168148;28;20191;-71
2022/09/20 03:28:10;;;;;;;9.00;2.10;;;;;;;11.87;66.03;99603.50;5182459;28;20057;-70
2022/09/20 03:31:27;;;;;;;7.25;2.38;;;;;;;11.92;65.44;99604.78;5174590;28;20523;-70
2022/09/20 03:34:46;;;;;;;7.03;1.95;;;;;;;12.14;64.54;99601.00;5183038;28;20052;-71
2022/09/20 03:37:51;;;;;;;6.43;2.28;;;;;;;11.89;65.43;99606.88;5182063;28;20136;-71
2022/09/20 03:41:00;;;;;;;5.18;2.20;;;;;;;11.84;66.06;99614.38;5173841;28;20047;-70
2022/09/20 03:43:56;;;;;;;6.88;2.08;;;;;;;11.92;65.14;99610.09;5182510;28;20057;-71
2022/09/20 03:46:47;;;;;;;10.55;2.13;;;;;;;11.89;64.50;99613.03;5181323;28;20057;-71
2022/09/20 03:49:52;;;;;;;8.30;1.95;;;;;;;11.92;65.03;99617.22;5180949;28;20057;-70
2022/09/20 03:53:15;;;;;;;7.45;2.42;;;;;;;11.88;65.92;99608.69;5178433;28;20144;-71
2022/09/20 03:56:29;;;;;;;5.63;2.13;;;;;;;11.77;66.71;99614.91;5173305;28;20416;-70
2022/09/20 03:59:37;;;;;;;9.52;2.42;;;;;;;11.98;65.75;99611.34;5168190;28;20050;-70
2022/09/20 04:03:01;;;;;;;10.77;2.83;;;;;;;12.01;65.84;99615.56;5175950;28;20108;-70
2022/09/20 04:06:20;;;;;;;6.82;2.53;;;;;;;11.91;66.08;99618.19;5176427;28;20061;-70
2022/09/20 04:09:32;;;;;;;7.40;2.45;;;;;;;12.02;65.68;99618.09;5170590;28;20087;-70
2022/09/20 04:12:37;;;;;;;9.63;2.47;;;;;;;12.06;66.55;99626.63;5171582;28;20415;-72
2022/09/20 04:15:43;;;;;;;5.43;2.05;;;;;;;11.92;66.51;99617.22;5181864;28;20053;-70
2022/09/20 04:18:51;;;;;;;5.63;2.65;;;;;;;11.95;66.35;99620.47;5182992;28;20053;-71
2022/09/20 04:21:57;;;;;;;10.57;2.70;;;;;;;12.10;65.54;99622.72;5177131;28;20121;-70
2022/09/20 04:25:16;;;;;;;5.82;2.50;;;;;;;11.86;65.80;99615.13;5182975;28;20050;-72
2022/09/20 04:28:38;;;;;;;7.40;2.78;;;;;;;11.90;66.10;99622.69;5171486;28;20058;-73
2022/09/20 04:31:35;;;;;;;7.57;3.03;;;;;;;11.93;65.79;99617.09;5169096;28;20049;-72
2022/09/20 04:37:43;;;;;;;8.82;2.80;;;;;;;11.87;66.14;99617.63;5177046;28;20053;-68
2022/09/20 04:41:11;;;;;;;8.25;2.72;;;;;;;11.83;66.10;99626.84;5171840;28;20061;-68
2022/09/20 04:44:36;;;;;;;6.43;2.28;;;;;;;11.80;65.93;99626.25;5173046;28;20168;-68
2022/09/20 04:48:01;;;;;;;8.18;2.40;;;;;;;11.69;66.23;99630.72;5145404;28;20054;-68
2022/09/20 04:51:13;;;;;;;6.65;2.38;;;;;;;11.48;66.54;99636.06;5150868;28;20133;-68
2022/09/20 04:54:25;;;;;;;13.05;3.55;;;;;;;11.45;66.58;99644.31;5162392;28;20072;-68
2022/09/20 04:57:52;;;;;;;12.60;3.95;;;;;;;11.24;67.23;99647.00;5169193;28;20117;-69
2022/09/20 05:00:55;;;;;;;13.18;3.70;;;;;;;11.25;67.51;99656.66;5174097;28;20056;-68
2022/09/20 05:04:07;;;;;;;11.00;3.65;;;;;;;11.23;67.29;99655.13;5146407;28;20054;-68
2022/09/20 05:06:57;;;;;;;10.35;3.08;;;;;;;11.21;66.84;99657.91;5155847;28;20054;-68
2022/09/20 05:10:09;;;;;;;9.70;3.00;;;;;;;11.26;67.02;99660.16;5152472;28;20472;-68
2022/09/20 05:13:08;;;;;;;11.23;2.90;;;;;;;11.11;67.98;99664.97;5157774;28;20060;-68
2022/09/20 05:16:20;;;;;;;11.88;3.00;;;;;;;11.13;67.14;99659.53;5155058;28;20057;-68
2022/09/20 05:19:30;;;;;;;9.82;3.65;;;;;;;11.09;67.19;99658.94;5154612;28;20544;-68
2022/09/20 05:22:52;;;;;;;10.55;4.10;;;;;;;10.84;67.88;99665.50;5138566;28;20070;-69
2022/09/20 05:25:58;;;;;;;13.27;3.80;;;;;;;11.01;67.15;99667.56;5161137;28;20420;-68
2022/09/20 05:28:59;;;;;;;11.20;3.40;;;;;;;10.85;68.29;99666.31;5157725;28;20065;-68
2022/09/20 05:32:20;;;;;;;16.45;4.35;;;;;;;10.96;67.69;99674.22;5151060;28;20149;-68
2022/09/20 05:35:35;;;;;;;37.08;6.07;;;;;;;10.75;68.25;99677.69;5156690;28;20076;-68
2022/09/20 05:38:25;;;;;;;14.18;3.85;;;;;;;10.87;67.79;99681.16;5141024;28;20058;-68
2022/09/20 05:41:29;;;;;;;18.90;4.35;;;;;;;10.68;68.43;99681.84;5140696;28;20509;-68
2022/09/20 05:44:22;;;;;;;14.30;4.40;;;;;;;10.95;67.70;99681.34;5144032;28;20109;-68
2022/09/20 05:47:33;;;;;;;27.60;5.95;;;;;;;11.05;68.03;99686.72;5148348;28;20521;-68
2022/09/20 05:50:58;;;;;;;17.48;5.68;;;;;;;10.97;67.68;99684.72;5157798;28;20050;-68
2022/09/20 05:54:06;;;;;;;14.05;4.13;;;;;;;11.12;68.17;99687.88;5151026;28;20086;-68
2022/09/20 05:57:29;;;;;;;11.20;3.78;;;;;;;11.29;67.70;99692.59;5156940;28;20104;-68
2022/09/20 06:00:26;;;;;;;9.75;3.20;;;;;;;11.26;67.59;99695.53;5143535;28;20382;-68
2022/09/20 06:03:36;;;;;;;7.93;3.45;;;;;;;11.42;66.81;99695.06;5147050;28;20038;-68
2022/09/20 06:07:04;;;;;;;13.48;4.10;;;;;;;11.52;67.30;99698.59;5162583;28;20061;-69
2022/09/20 06:10:30;;;;;;;11.38;3.95;;;;;;;11.60;65.78;99679.31;5150083;28;20050;-68
2022/09/20 06:13:42;;;;;;;14.63;3.85;;;;;;;11.48;66.40;99696.31;5143952;28;20545;-68
2022/09/20 06:16:32;;;;;;;9.43;3.40;;;;;;;11.59;66.19;99698.91;5152995;28;20421;-68
2022/09/20 06:19:37;;;;;;;7.63;3.22;;;;;;;11.54;66.45;99695.78;5144360;28;20113;-69
2022/09/20 06:22:35;;;;;;;15.95;3.40;;;;;;;11.46;66.50;99687.66;5158793;28;20054;-68
2022/09/20 06:25:47;;;;;;;38.53;5.28;;;;;;;11.59;66.55;99698.91;5155584;28;20117;-69
2022/09/20 06:28:40;;;;;;;9.48;3.33;;;;;;;11.66;66.55;99705.34;5156553;28;20061;-69
2022/09/20 06:31:31;;;;;;;7.03;2.75;;;;;;;11.53;65.99;99702.09;5160426;28;20138;-69
2022/09/20 06:34:21;;;;;;;10.32;2.90;;;;;;;11.60;66.67;99692.59;5155970;28;20057;-68
2022/09/20 06:44:13;;;;;;;9.43;3.10;;;;;;;11.81;66.33;99695.19;5086601;29;20063;-69
2022/09/20 06:47:06;;;;;;;21.55;4.15;;;;;;;11.63;66.02;99716.25;5148567;28;20058;-69
2022/09/20 06:49:57;;;;;;;27.33;4.88;;;;;;;11.35;68.52;99709.81;5143253;28;20740;-69
2022/09/20 06:52:48;;;;;;;20.00;3.70;;;;;;;11.94;67.42;99716.25;5142909;28;20513;-69
2022/09/20 06:55:41;;;;;;;8.27;2.80;;;;;;;11.32;67.20;99723.34;5147952;28;20144;-70
2022/09/20 06:58:31;;;;;;;15.07;3.20;;;;;;;11.05;68.92;99734.47;5163265;28;20121;-69
2022/09/20 07:01:21;;;;;;;13.85;2.97;;;;;;;11.91;66.75;99721.84;5148807;28;20169;-70
2022/09/20 07:04:21;;;;;;;12.70;2.50;;;;;;;12.03;65.86;99723.44;5144410;28;20046;-68
2022/09/20 07:07:16;;;;;;;7.15;2.67;;;;;;;11.97;66.08;99718.66;5143027;28;20087;-69
2022/09/20 07:10:06;;;;;;;11.55;3.20;;;;;;;12.29;65.79;99723.78;5146075;28;20720;-68
2022/09/20 07:13:00;;;;;;;14.55;3.33;;;;;;;11.37;68.42;99726.44;5150922;28;20647;-69
2022/09/20 07:15:51;;;;;;;13.38;3.03;;;;;;;12.79;64.75;99718.34;5137851;28;20058;-69
2022/09/20 07:18:41;;;;;;;12.07;3.33;;;;;;;13.91;60.99;99728.34;5136369;28;20408;-69
2022/09/20 07:21:31;;;;;;;10.07;2.88;;;;;;;14.74;59.69;99721.16;5148571;28;20050;-68
2022/09/20 07:24:21;;;;;;;14.20;2.92;;;;;;;15.54;56.96;99708.56;5154846;28;20062;-69
2022/09/20 07:27:12;;;;;;;880.53;57.47;;;;;;;15.94;56.12;99724.00;5147664;28;20061;-67
2022/09/20 07:30:03;;;;;;;39.65;4.78;;;;;;;16.47;53.38;99721.19;5147720;28;20062;-67
2022/09/20 07:32:53;;;;;;;29.73;3.78;;;;;;;17.34;52.63;99723.25;5144774;28;20515;-67
2022/09/20 07:35:43;;;;;;;17.60;3.25;;;;;;;17.52;51.36;99706.97;5143961;28;20074;-67
2022/09/20 07:38:32;;;;;;;7.55;2.60;;;;;;;16.78;52.49;99730.28;5144749;28;20049;-67
2022/09/20 07:41:22;;;;;;;265.80;19.50;;;;;;;16.03;54.15;99732.09;5136410;28;20098;-67
2022/09/20 07:44:20;;;;;;;61.72;5.03;;;;;;;17.29;52.27;99730.97;5139048;28;20092;-66
2022/09/20 07:47:12;;;;;;;5.38;2.58;;;;;;;17.80;50.81;99731.56;5158196;28;20088;-67
2022/09/20 07:50:03;;;;;;;12.68;2.55;;;;;;;17.20;51.66;99734.66;5146502;28;20109;-66
2022/09/20 07:52:55;;;;;;;10.18;2.13;;;;;;;17.73;52.16;99737.75;5146816;28;20061;-67
2022/09/20 07:56:07;;;;;;;10.15;2.15;;;;;;;18.82;47.11;99730.75;5147383;28;20061;-67
2022/09/20 07:58:57;;;;;;;9.50;2.42;;;;;;;17.28;51.44;99737.31;5139923;28;20168;-67
2022/09/20 08:01:47;;;;;;;24.35;2.83;;;;;;;16.64;52.42;99720.19;5147051;28;20132;-67
2022/09/20 08:04:37;;;;;;;11.90;2.00;;;;;;;17.66;50.28;99721.53;5147512;28;20176;-69
2022/09/20 08:07:28;;;;;;;11.25;2.13;;;;;;;18.00;49.40;99733.84;5137709;28;20144;-69
2022/09/20 08:10:18;;;;;;;10.82;2.65;;;;;;;18.58;48.24;99740.63;5156559;28;20089;-69
2022/09/20 08:13:09;;;;;;;10.88;1.83;;;;;;;16.28;49.84;99741.03;5144600;28;21747;-69
2022/09/20 08:16:20;;;;;;;10.25;1.83;;;;;;;17.94;47.32;99738.06;5139636;28;20237;-70
2022/09/20 08:19:16;;;;;;;7.45;1.80;;;;;;;18.95;47.53;99749.81;5145047;28;20346;-69
2022/09/20 08:22:07;;;;;;;9.25;1.90;;;;;;;17.36;51.18;99757.94;5133812;28;20417;-70
2022/09/20 08:24:57;;;;;;;13.50;1.73;;;;;;;17.20;50.15;99756.09;5137502;28;20062;-69
2022/09/20 08:27:53;;;;;;;9.48;1.92;;;;;;;17.34;50.35;99752.72;5145194;28;20094;-71
2022/09/20 08:30:43;;;;;;;11.52;2.08;;;;;;;16.85;51.20;99760.78;5163415;28;21168;-67
2022/09/20 08:33:35;;;;;;;9.82;1.60;;;;;;;16.36;49.24;99755.28;5148221;28;20547;-67
2022/09/20 08:36:25;;;;;;;10.60;1.95;;;;;;;17.02;50.42;99744.69;5151825;28;20061;-67
2022/09/20 08:39:22;;;;;;;10.90;2.00;;;;;;;18.20;46.61;99747.69;5145834;28;20505;-67
2022/09/20 08:42:35;;;;;;;7.82;1.67;;;;;;;17.72;48.72;99750.34;5149089;28;20068;-67
2022/09/20 08:45:33;;;;;;;8.32;1.70;;;;;;;18.21;47.50;99743.97;5155170;28;20124;-69
2022/09/20 08:48:32;;;;;;;5.63;1.40;;;;;;;17.24;48.16;99745.88;5144027;28;20135;-67
2022/09/20 08:51:22;;;;;;;12.65;1.80;;;;;;;16.74;48.90;99747.66;5140331;28;20136;-67
2022/09/20 08:54:14;;;;;;;9.98;1.83;;;;;;;16.86;49.80;99757.09;5139224;28;20530;-68
2022/09/20 08:57:13;;;;;;;9.00;1.42;;;;;;;17.37;46.48;99757.75;5143976;28;20137;-68
2022/09/20 09:00:05;;;;;;;4.55;1.30;;;;;;;16.31;49.40;99754.09;5141072;28;20050;-67
2022/09/20 09:02:59;;;;;;;11.02;2.13;;;;;;;15.93;50.45;99738.38;5133388;28;20064;-67
2022/09/20 09:05:52;;;;;;;8.10;1.45;;;;;;;16.21;50.25;99743.50;5138474;28;20132;-67
2022/09/20 09:08:43;;;;;;;9.50;1.97;;;;;;;14.10;53.27;99747.81;5133854;28;20081;-69
2022/09/20 09:11:33;;;;;;;19.73;2.28;;;;;;;14.89;53.37;99742.81;5136494;28;20061;-70
2022/09/20 09:14:47;;;;;;;8.85;1.95;;;;;;;16.12;50.13;99739.13;5149242;28;20069;-69
2022/09/20 09:17:37;;;;;;;6.40;1.70;;;;;;;16.96;48.04;99746.22;5151666;28;20077;-69
2022/09/20 09:20:27;;;;;;;6.80;1.70;;;;;;;15.86;49.98;99742.72;5138419;28;20266;-69
2022/09/20 09:23:24;;;;;;;11.68;1.45;;;;;;;16.31;48.02;99752.22;5142453;28;20517;-69
2022/09/20 09:26:22;;;;;;;6.72;1.40;;;;;;;15.31;50.41;99751.00;5152128;28;20058;-69
2022/09/20 09:29:22;;;;;;;13.63;1.70;;;;;;;16.20;48.98;99737.31;5149501;28;20417;-69
2022/09/20 09:32:22;;;;;;;4.72;1.55;;;;;;;16.45;49.15;99724.84;5149715;28;20184;-69
2022/09/20 09:35:27;;;;;;;8.38;1.75;;;;;;;18.47;46.17;99732.94;5149855;28;20143;-69
2022/09/20 09:38:22;;;;;;;4.90;1.55;;;;;;;17.35;44.84;99734.81;5151980;28;20065;-69
2022/09/20 09:41:34;;;;;;;113.15;6.10;;;;;;;18.40;44.36;99713.19;5137244;28;20050;-70
2022/09/20 09:44:31;;;;;;;7.82;1.45;;;;;;;16.55;47.56;99723.84;5149738;28;20061;-69
2022/09/20 09:47:28;;;;;;;8.27;1.50;;;;;;;18.13;47.36;99731.44;5141282;28;20082;-69
2022/09/20 09:50:29;;;;;;;7.13;1.30;;;;;;;18.74;42.95;99735.19;5148756;28;20200;-69
2022/09/20 09:53:22;;;;;;;8.80;1.40;;;;;;;17.57;43.73;99725.22;5137956;28;20062;-68
2022/09/20 09:56:12;;;;;;;8.88;1.35;;;;;;;16.68;46.24;99734.94;5147109;28;20054;-68
2022/09/20 09:59:11;;;;;;;7.25;1.63;;;;;;;17.04;45.99;99730.13;5140210;28;20065;-69
2022/09/20 10:02:22;;;;;;;21.38;1.55;;;;;;;17.52;45.71;99732.97;5141375;28;20061;-69
2022/09/20 10:05:34;;;;;;;9.32;1.50;;;;;;;17.77;45.07;99729.22;5136120;28;20065;-68
2022/09/20 10:08:38;;;;;;;10.18;1.20;;;;;;;18.73;43.32;99725.41;5142293;28;20068;-69
2022/09/20 10:11:57;;;;;;;10.27;1.60;;;;;;;18.62;42.78;99731.19;5142956;28;20522;-69
2022/09/20 10:15:20;;;;;;;5.60;1.23;;;;;;;17.73;44.11;99719.00;5125476;28;20053;-68
2022/09/20 10:18:37;;;;;;;16.60;1.63;;;;;;;19.72;42.27;99711.97;5139219;28;20080;-69
2022/09/20 10:21:49;;;;;;;8.45;1.33;;;;;;;19.02;43.75;99724.69;5137183;28;20173;-69
2022/09/20 10:25:01;;;;;;;9.35;1.65;;;;;;;18.20;43.47;99719.00;5140112;28;20061;-68
2022/09/20 10:28:19;;;;;;;10.80;1.30;;;;;;;17.65;43.86;99724.34;5142835;28;20149;-69
2022/09/20 10:31:59;;;;;;;9.43;1.65;;;;;;;17.53;42.87;99719.38;5145320;28;20420;-68
2022/09/20 10:35:08;;;;;;;11.18;1.52;;;;;;;17.69;44.59;99721.19;5168990;23;20056;-72
2022/09/20 10:38:14;;;;;;;14.05;1.38;;;;;;;17.51;45.02;99723.22;5141867;28;20072;-72
2022/09/20 10:44:54;;;;;;;5.65;1.08;;;;;;;16.17;45.31;99726.09;5158070;28;20417;-72
2022/09/20 10:48:02;;;;;;;5.63;1.20;;;;;;;16.54;45.87;99724.88;5147350;28;20505;-72
2022/09/20 10:51:01;;;;;;;8.10;1.60;;;;;;;16.62;46.98;99724.88;5150588;28;20516;-71
2022/09/20 10:54:27;;;;;;;6.78;1.42;;;;;;;17.78;46.74;99722.88;5153179;28;20180;-71
2022/09/20 10:57:47;;;;;;;8.52;1.35;;;;;;;17.26;45.10;99725.94;5114632;28;20433;-71
2022/09/20 11:00:53;;;;;;;4.45;1.10;;;;;;;17.26;43.91;99717.91;5154072;28;20053;-72
2022/09/20 11:04:20;;;;;;;11.15;1.15;;;;;;;16.01;47.46;99723.38;5141046;28;20081;-71
2022/09/20 11:07:22;;;;;;;5.90;1.27;;;;;;;15.94;48.98;99723.16;5161682;28;20116;-71
2022/09/20 11:10:23;;;;;;;5.65;1.30;;;;;;;16.85;47.98;99714.38;5154454;28;20455;-71
2022/09/20 11:13:40;;;;;;;12.55;1.25;;;;;;;16.75;47.41;99719.06;5155005;28;20812;-72
2022/09/20 11:16:51;;;;;;;82.22;6.47;;;;;;;17.05;46.28;99726.47;5140836;28;20059;-71
2022/09/20 11:19:51;;;;;;;7.70;1.20;;;;;;;17.13;47.15;99717.59;5151667;28;20426;-70
2022/09/20 11:22:47;;;;;;;4.13;1.17;;;;;;;16.39;47.50;99717.50;5156423;28;20496;-72
2022/09/20 11:26:01;;;;;;;7.72;1.25;;;;;;;16.48;48.16;99721.00;5142898;28;20081;-72
2022/09/20 11:28:56;;;;;;;9.35;1.70;;;;;;;16.97;46.37;99713.06;5143610;28;20066;-71
2022/09/20 11:31:49;;;;;;;12.13;1.63;;;;;;;17.14;47.20;99708.53;5143301;28;21470;-72
2022/09/20 11:34:50;;;;;;;4.87;1.57;;;;;;;16.95;45.71;99703.50;5158416;28;20531;-72
2022/09/20 11:37:47;;;;;;;12.50;1.30;;;;;;;16.80;47.19;99722.09;5155946;28;20360;-72
2022/09/20 11:40:45;;;;;;;5.93;1.35;;;;;;;16.47;47.98;99713.97;5154359;28;20052;-72
2022/09/20 11:43:43;;;;;;;4.65;1.17;;;;;;;16.43;47.89;99708.13;5155537;28;20568;-72
2022/09/20 11:46:46;;;;;;;5.60;1.45;;;;;;;16.97;49.80;99709.56;5149281;28;20069;-71
2022/09/20 11:50:04;;;;;;;27.50;2.85;;;;;;;16.91;48.48;99713.72;5154259;28;20548;-72
2022/09/20 11:53:32;;;;;;;8.23;1.50;;;;;;;17.54;47.70;99715.66;5149799;28;20062;-71
2022/09/20 11:56:29;;;;;;;24.65;1.70;;;;;;;16.98;48.02;99709.38;5151575;28;20046;-73
2022/09/20 11:59:28;;;;;;;25.00;2.42;;;;;;;16.79;49.79;99709.72;5159328;28;20521;-71
2022/09/20 12:02:25;;;;;;;7.57;1.70;;;;;;;17.40;47.05;99704.81;5131891;28;20120;-72
2022/09/20 12:05:40;;;;;;;8.10;1.30;;;;;;;17.65;45.93;99698.41;5162272;28;20676;-71
2022/09/20 12:08:34;;;;;;;32.97;3.10;;;;;;;16.72;46.82;99703.28;5152601;28;20105;-71
2022/09/20 12:11:28;;;;;;;10.40;1.48;;;;;;;16.95;45.01;99703.50;5140480;28;20078;-71
2022/09/20 12:14:24;;;;;;;8.73;1.20;;;;;;;17.42;44.29;99692.94;5159217;28;20104;-72
2022/09/20 12:17:45;;;;;;;3.13;1.15;;;;;;;17.67;44.89;99692.84;5159132;28;20161;-69
2022/09/20 12:20:35;;;;;;;81.63;7.68;;;;;;;18.22;45.79;99700.88;5141642;28;20054;-72
2022/09/20 12:23:37;;;;;;;69.97;3.42;;;;;;;18.02;45.09;99699.63;5152964;28;20107;-73
2022/09/20 12:26:39;;;;;;;8.07;1.77;;;;;;;16.01;49.46;99696.63;5155592;28;20069;-73
2022/09/20 12:29:33;;;;;;;8.55;1.73;;;;;;;16.11;50.31;99692.81;5154155;28;20061;-73
2022/09/20 12:32:39;;;;;;;7.18;1.40;;;;;;;15.86;51.29;99701.72;5161989;28;20058;-73
2022/09/20 12:35:44;;;;;;;10.02;1.30;;;;;;;15.94;50.53;99689.25;5152313;28;20080;-73
2022/09/20 12:38:38;;;;;;;9.50;1.70;;;;;;;16.70;51.01;99689.25;5166661;28;21091;-73
2022/09/20 12:41:54;;;;;;;6.35;1.40;;;;;;;17.22;47.79;99687.09;5162534;28;20515;-74
2022/09/20 12:44:50;;;;;;;6.88;1.52;;;;;;;17.04;47.66;99697.16;5147860;28;20050;-72
2022/09/20 12:47:51;;;;;;;5.53;1.75;;;;;;;17.43;45.81;99685.72;5155966;28;20065;-74
2022/09/20 12:54:04;;;;;;;6.93;1.05;;;;;;;17.63;44.75;99681.63;5148745;28;20062;-73
2022/09/20 12:56:54;;;;;;;4.82;1.15;;;;;;;17.51;41.80;99688.38;5155087;28;20145;-73
2022/09/20 12:59:54;;;;;;;66.82;3.63;;;;;;;17.09;44.69;99684.94;5154049;28;20054;-74
2022/09/20 13:02:51;;;;;;;10.25;1.23;;;;;;;17.71;42.12;99683.44;5158102;28;20100;-73
2022/09/20 13:05:44;;;;;;;8.80;1.60;;;;;;;17.78;41.43;99674.59;5161215;28;20061;-74
2022/09/20 13:08:45;;;;;;;3.88;0.88;;;;;;;17.61;41.83;99667.56;5154727;28;20068;-73
2022/09/20 13:11:53;;;;;;;2.92;0.85;;;;;;;17.00;42.09;99674.38;5162515;28;21277;-73
2022/09/20 13:14:43;;;;;;;5.57;1.27;;;;;;;17.67;42.41;99672.22;5151510;28;20109;-75
2022/09/20 13:17:36;;;;;;;11.40;1.60;;;;;;;17.75;42.92;99680.25;5154461;28;20519;-74
2022/09/20 13:20:33;;;;;;;10.43;1.35;;;;;;;17.75;43.04;99676.75;5157178;28;20054;-72
2022/09/20 13:23:28;;;;;;;18.83;2.38;;;;;;;17.52;44.09;99676.66;5166243;28;20056;-72
2022/09/20 13:26:21;;;;;;;;;;;;;;;17.75;43.89;99691.00;5161001;28;20508;-73
2022/09/20 13:29:30;;;;;;;15.90;2.30;;;;;;;17.27;44.66;99682.06;5166182;28;19921;-75
2022/09/20 13:32:33;;;;;;;6.90;1.80;;;;;;;16.79;46.37;99689.13;5158885;28;20120;-75
2022/09/20 13:35:31;;;;;;;7.10;1.40;;;;;;;16.82;46.34;99683.44;5151792;28;20209;-73
2022/09/20 13:38:29;;;;;;;9.90;2.35;;;;;;;16.42;47.63;99681.50;5154220;28;20061;-73
2022/09/20 13:41:19;;;;;;;7.13;1.35;;;;;;;16.90;47.27;99669.19;5153771;28;20112;-74
2022/09/20 13:44:15;;;;;;;10.57;1.77;;;;;;;17.30;46.43;99670.16;5157186;28;20312;-72
2022/09/20 13:47:29;;;;;;;8.57;1.60;;;;;;;17.54;47.02;99677.28;5158514;28;20060;-75
2022/09/20 13:50:26;;;;;;;6.60;1.48;;;;;;;17.04;46.26;99676.56;5156160;28;20578;-74
2022/09/20 13:53:17;;;;;;;8.77;1.45;;;;;;;17.26;46.00;99683.06;5152094;28;20054;-74
2022/09/20 13:56:28;;;;;;;9.57;1.90;;;;;;;17.04;47.47;99681.06;5151654;28;20250;-74
2022/09/20 13:59:19;;;;;;;8.65;1.60;;;;;;;16.81;47.81;99667.53;5152700;28;20069;-75
2022/09/20 14:02:31;;;;;;;7.07;1.55;;;;;;;15.33;51.09;99692.91;5151363;28;20135;-74
2022/09/20 14:05:25;;;;;;;5.60;1.60;;;;;;;14.59;53.15;99698.66;5154210;28;20081;-75
2022/09/20 14:08:36;;;;;;;10.15;1.92;;;;;;;14.40;54.24;99707.59;5146532;28;20053;-73
2022/09/20 14:11:32;;;;;;;5.30;1.42;;;;;;;14.52;53.93;99693.09;5156498;28;20057;-75
2022/09/20 14:14:23;;;;;;;7.93;1.45;;;;;;;15.19;53.11;99696.97;5148464;28;20148;-76
2022/09/20 14:17:17;;;;;;;8.10;1.75;;;;;;;14.50;54.13;99701.25;5157456;28;20516;-75
2022/09/20 14:20:14;;;;;;;7.35;1.75;;;;;;;14.84;54.37;99700.56;5156947;28;20459;-76
2022/09/20 14:23:04;;;;;;;6.30;1.83;;;;;;;14.97;53.54;99698.34;5160450;28;20129;-75
2022/09/20 14:26:16;;;;;;;8.40;2.05;;;;;;;15.31;53.58;99700.25;5161776;28;20143;-74
2022/09/20 14:29:36;;;;;;;5.13;1.30;;;;;;;14.63;51.81;99700.84;5161004;28;20062;-75
2022/09/20 14:32:45;;;;;;;4.28;1.52;;;;;;;15.21;51.79;99683.47;5160544;28;20577;-75